sensor_id;sensor_type;location;lat;lon;timestamp;pressure;altitude;pressure_sealevel;temperature;humidity
64610;BME280;51019;46.090;6.350;2023-05-09T00:02:22;96856.50;;;11.59;100.00
64610;BME280;51019;46.090;6.350;2023-05-09T00:04:52;96833.28;;;11.54;100.00
64610;BME280;51019;46.090;6.350;2023-05-09T00:07:20;96860.47;;;11.73;100.00
64610;BME280;51019;46.090;6.350;2023-05-09T00:09:49;96858.16;;;11.60;100.00
64610;BME280;51019;46.090;6.350;2023-05-09T00:12:17;96830.25;;;11.49;100.00
64610;BME280;51019;46.090;6.350;2023-05-09T00:14:45;96859.50;;;11.74;100.00
64610;BME280;51019;46.090;6.350;2023-05-09T00:17:16;96857.44;;;11.68;100.00
64610;BME280;51019;46.090;6.350;2023-05-09T00:19:44;96861.75;;;11.59;100.00
64610;BME280;51019;46.090;6.350;2023-05-09T00:22:13;96860.78;;;11.60;100.00
64610;BME280;51019;46.090;6.350;2023-05-09T00:24:41;96850.97;;;11.52;100.00
64610;BME280;51019;46.090;6.350;2023-05-09T00:27:09;96851.25;;;11.59;100.00
64610;BME280;51019;46.090;6.350;2023-05-09T00:29:37;96830.13;;;11.51;100.00
64610;BME280;51019;46.090;6.350;2023-05-09T00:32:05;96841.56;;;11.59;100.00
64610;BME280;51019;46.090;6.350;2023-05-09T00:34:33;96843.47;;;11.67;100.00
64610;BME280;51019;46.090;6.350;2023-05-09T00:37:02;96836.47;;;11.58;100.00
64610;BME280;51019;46.090;6.350;2023-05-09T00:39:33;96837.25;;;11.78;100.00
64610;BME280;51019;46.090;6.350;2023-05-09T00:42:01;96830.91;;;11.71;100.00
64610;BME280;51019;46.090;6.350;2023-05-09T00:44:31;96831.66;;;11.34;100.00
64610;BME280;51019;46.090;6.350;2023-05-09T00:46:59;96833.72;;;11.31;100.00
64610;BME280;51019;46.090;6.350;2023-05-09T00:49:27;96824.63;;;11.25;100.00
64610;BME280;51019;46.090;6.350;2023-05-09T00:51:55;96826.13;;;11.37;100.00
64610;BME280;51019;46.090;6.350;2023-05-09T00:54:27;96814.94;;;11.35;100.00
64610;BME280;51019;46.090;6.350;2023-05-09T00:56:56;96834.81;;;11.47;100.00
64610;BME280;51019;46.090;6.350;2023-05-09T00:59:25;96819.06;;;11.47;100.00
64610;BME280;51019;46.090;6.350;2023-05-09T01:01:53;96826.69;;;11.50;100.00
64610;BME280;51019;46.090;6.350;2023-05-09T01:04:20;96795.50;;;11.28;100.00
64610;BME280;51019;46.090;6.350;2023-05-09T01:06:53;96820.75;;;11.39;100.00
64610;BME280;51019;46.090;6.350;2023-05-09T01:09:29;96805.28;;;11.36;100.00
64610;BME280;51019;46.090;6.350;2023-05-09T01:12:08;96819.63;;;11.41;100.00
64610;BME280;51019;46.090;6.350;2023-05-09T01:14:43;96813.53;;;11.41;100.00
64610;BME280;51019;46.090;6.350;2023-05-09T01:17:18;96822.38;;;11.59;100.00
64610;BME280;51019;46.090;6.350;2023-05-09T01:19:57;96809.13;;;11.32;100.00
64610;BME280;51019;46.090;6.350;2023-05-09T01:22:31;96797.97;;;11.10;100.00
64610;BME280;51019;46.090;6.350;2023-05-09T01:25:05;96805.59;;;11.04;100.00
64610;BME280;51019;46.090;6.350;2023-05-09T01:27:48;96798.66;;;11.22;100.00
64610;BME280;51019;46.090;6.350;2023-05-09T01:30:19;96797.72;;;10.94;100.00
64610;BME280;51019;46.090;6.350;2023-05-09T01:32:50;96800.47;;;10.93;100.00
64610;BME280;51019;46.090;6.350;2023-05-09T01:35:24;96779.22;;;10.76;100.00
64610;BME280;51019;46.090;6.350;2023-05-09T01:37:54;96800.88;;;10.98;100.00
64610;BME280;51019;46.090;6.350;2023-05-09T01:40:29;96801.72;;;10.88;100.00
64610;BME280;51019;46.090;6.350;2023-05-09T01:43:08;96809.19;;;11.03;100.00
64610;BME280;51019;46.090;6.350;2023-05-09T01:45:39;96794.28;;;10.94;100.00
64610;BME280;51019;46.090;6.350;2023-05-09T01:48:09;96771.50;;;10.75;100.00
64610;BME280;51019;46.090;6.350;2023-05-09T01:50:37;96788.34;;;10.82;100.00
64610;BME280;51019;46.090;6.350;2023-05-09T01:53:10;96804.19;;;10.71;100.00
64610;BME280;51019;46.090;6.350;2023-05-09T01:55:39;96760.56;;;10.41;100.00
64610;BME280;51019;46.090;6.350;2023-05-09T01:58:08;96804.59;;;10.85;100.00
64610;BME280;51019;46.090;6.350;2023-05-09T02:00:39;96696.84;;;10.31;100.00
64610;BME280;51019;46.090;6.350;2023-05-09T02:03:07;96788.47;;;11.00;100.00
64610;BME280;51019;46.090;6.350;2023-05-09T02:05:36;96793.72;;;10.80;100.00
64610;BME280;51019;46.090;6.350;2023-05-09T02:08:07;96806.44;;;10.95;100.00
64610;BME280;51019;46.090;6.350;2023-05-09T02:10:34;96798.13;;;10.80;100.00
64610;BME280;51019;46.090;6.350;2023-05-09T02:13:03;96795.78;;;10.67;100.00
64610;BME280;51019;46.090;6.350;2023-05-09T02:15:31;96795.78;;;10.67;100.00
64610;BME280;51019;46.090;6.350;2023-05-09T02:18:01;96795.25;;;10.83;100.00
64610;BME280;51019;46.090;6.350;2023-05-09T02:20:29;96775.19;;;10.63;100.00
64610;BME280;51019;46.090;6.350;2023-05-09T02:23:00;96797.69;;;10.75;100.00
64610;BME280;51019;46.090;6.350;2023-05-09T02:25:27;96801.28;;;10.74;100.00
64610;BME280;51019;46.090;6.350;2023-05-09T02:27:59;96798.41;;;10.77;100.00
64610;BME280;51019;46.090;6.350;2023-05-09T02:30:31;96803.91;;;10.64;100.00
64610;BME280;51019;46.090;6.350;2023-05-09T02:33:06;96793.28;;;10.66;100.00
64610;BME280;51019;46.090;6.350;2023-05-09T02:35:36;96788.75;;;10.68;100.00
64610;BME280;51019;46.090;6.350;2023-05-09T02:38:05;96817.72;;;10.85;100.00
64610;BME280;51019;46.090;6.350;2023-05-09T02:40:34;96801.31;;;10.83;100.00
64610;BME280;51019;46.090;6.350;2023-05-09T02:43:01;96804.34;;;10.79;100.00
64610;BME280;51019;46.090;6.350;2023-05-09T02:45:29;96782.41;;;10.61;100.00
64610;BME280;51019;46.090;6.350;2023-05-09T02:47:57;96789.13;;;10.63;100.00
64610;BME280;51019;46.090;6.350;2023-05-09T02:50:28;96788.19;;;10.64;100.00
64610;BME280;51019;46.090;6.350;2023-05-09T02:52:55;96800.44;;;10.54;100.00
64610;BME280;51019;46.090;6.350;2023-05-09T02:55:23;96771.88;;;10.41;100.00
64610;BME280;51019;46.090;6.350;2023-05-09T02:57:51;96801.41;;;10.63;100.00
64610;BME280;51019;46.090;6.350;2023-05-09T03:00:19;96801.16;;;10.66;100.00
64610;BME280;51019;46.090;6.350;2023-05-09T03:02:48;96782.47;;;10.40;100.00
64610;BME280;51019;46.090;6.350;2023-05-09T03:05:16;96806.25;;;10.58;100.00
64610;BME280;51019;46.090;6.350;2023-05-09T03:07:45;96789.25;;;10.42;100.00
64610;BME280;51019;46.090;6.350;2023-05-09T03:10:14;96806.66;;;10.53;100.00
64610;BME280;51019;46.090;6.350;2023-05-09T03:12:41;96807.19;;;10.47;100.00
64610;BME280;51019;46.090;6.350;2023-05-09T03:15:12;96800.06;;;10.59;100.00
64610;BME280;51019;46.090;6.350;2023-05-09T03:17:39;96783.31;;;10.40;100.00
64610;BME280;51019;46.090;6.350;2023-05-09T03:20:07;96793.53;;;10.43;100.00
64610;BME280;51019;46.090;6.350;2023-05-09T03:22:36;96773.50;;;10.23;100.00
64610;BME280;51019;46.090;6.350;2023-05-09T03:25:07;96797.09;;;10.33;100.00
64610;BME280;51019;46.090;6.350;2023-05-09T03:27:35;96791.28;;;10.29;100.00
64610;BME280;51019;46.090;6.350;2023-05-09T03:30:06;96784.25;;;10.30;100.00
64610;BME280;51019;46.090;6.350;2023-05-09T03:32:33;96784.97;;;10.41;100.00
64610;BME280;51019;46.090;6.350;2023-05-09T03:35:01;96796.44;;;10.50;100.00
64610;BME280;51019;46.090;6.350;2023-05-09T03:37:28;96799.88;;;10.41;100.00
64610;BME280;51019;46.090;6.350;2023-05-09T03:39:56;96770.47;;;10.28;100.00
64610;BME280;51019;46.090;6.350;2023-05-09T03:42:28;96784.28;;;10.39;100.00
64610;BME280;51019;46.090;6.350;2023-05-09T03:44:57;96790.22;;;10.51;100.00
64610;BME280;51019;46.090;6.350;2023-05-09T03:47:24;96785.16;;;10.59;100.00
64610;BME280;51019;46.090;6.350;2023-05-09T03:49:52;96785.41;;;10.56;100.00
64610;BME280;51019;46.090;6.350;2023-05-09T03:52:22;96794.22;;;10.45;100.00
64610;BME280;51019;46.090;6.350;2023-05-09T03:54:50;96792.00;;;10.50;100.00
64610;BME280;51019;46.090;6.350;2023-05-09T03:57:18;96797.00;;;10.73;100.00
64610;BME280;51019;46.090;6.350;2023-05-09T03:59:47;96777.94;;;10.51;100.00
64610;BME280;51019;46.090;6.350;2023-05-09T04:02:16;96777.13;;;10.51;100.00
64610;BME280;51019;46.090;6.350;2023-05-09T04:04:43;96773.41;;;10.53;100.00
64610;BME280;51019;46.090;6.350;2023-05-09T04:07:11;96788.47;;;10.71;100.00
64610;BME280;51019;46.090;6.350;2023-05-09T04:09:39;96782.28;;;10.72;100.00
64610;BME280;51019;46.090;6.350;2023-05-09T04:12:07;96784.59;;;10.75;100.00
64610;BME280;51019;46.090;6.350;2023-05-09T04:14:35;96773.72;;;10.70;100.00
64610;BME280;51019;46.090;6.350;2023-05-09T04:17:04;96778.94;;;10.79;100.00
64610;BME280;51019;46.090;6.350;2023-05-09T04:19:32;96776.06;;;10.82;100.00
64610;BME280;51019;46.090;6.350;2023-05-09T04:22:01;96774.81;;;10.86;100.00
64610;BME280;51019;46.090;6.350;2023-05-09T04:24:32;96778.53;;;10.84;100.00
64610;BME280;51019;46.090;6.350;2023-05-09T04:27:00;96780.31;;;10.74;100.00
64610;BME280;51019;46.090;6.350;2023-05-09T04:29:33;96777.72;;;10.83;100.00
64610;BME280;51019;46.090;6.350;2023-05-09T04:32:01;96771.09;;;10.79;100.00
64610;BME280;51019;46.090;6.350;2023-05-09T04:34:32;96768.88;;;10.75;100.00
64610;BME280;51019;46.090;6.350;2023-05-09T04:37:00;96770.81;;;10.92;100.00
64610;BME280;51019;46.090;6.350;2023-05-09T04:39:30;96754.94;;;10.74;100.00
64610;BME280;51019;46.090;6.350;2023-05-09T04:41:58;96769.69;;;10.75;100.00
64610;BME280;51019;46.090;6.350;2023-05-09T04:44:25;96767.22;;;10.83;100.00
64610;BME280;51019;46.090;6.350;2023-05-09T04:46:54;96769.16;;;11.01;100.00
64610;BME280;51019;46.090;6.350;2023-05-09T04:49:22;96741.28;;;10.90;100.00
64610;BME280;51019;46.090;6.350;2023-05-09T04:51:53;96763.06;;;11.00;100.00
64610;BME280;51019;46.090;6.350;2023-05-09T04:54:22;96758.50;;;11.02;100.00
64610;BME280;51019;46.090;6.350;2023-05-09T04:56:50;96759.75;;;10.98;100.00
64610;BME280;51019;46.090;6.350;2023-05-09T04:59:18;96758.53;;;10.93;100.00
64610;BME280;51019;46.090;6.350;2023-05-09T05:01:46;96754.78;;;11.05;100.00
64610;BME280;51019;46.090;6.350;2023-05-09T05:04:14;96763.63;;;10.94;100.00
64610;BME280;51019;46.090;6.350;2023-05-09T05:06:41;96757.25;;;11.06;100.00
64610;BME280;51019;46.090;6.350;2023-05-09T05:09:11;96761.66;;;11.25;100.00
64610;BME280;51019;46.090;6.350;2023-05-09T05:11:39;96758.75;;;11.28;100.00
64610;BME280;51019;46.090;6.350;2023-05-09T05:14:06;96727.13;;;11.20;100.00
64610;BME280;51019;46.090;6.350;2023-05-09T05:16:34;96763.81;;;11.49;100.00
64610;BME280;51019;46.090;6.350;2023-05-09T05:19:02;96745.06;;;11.34;100.00
64610;BME280;51019;46.090;6.350;2023-05-09T05:21:29;96767.31;;;11.40;100.00
64610;BME280;51019;46.090;6.350;2023-05-09T05:23:57;96765.81;;;11.64;100.00
64610;BME280;51019;46.090;6.350;2023-05-09T05:26:26;96747.47;;;11.55;100.00
64610;BME280;51019;46.090;6.350;2023-05-09T05:28:53;96760.16;;;11.79;100.00
64610;BME280;51019;46.090;6.350;2023-05-09T05:31:22;96761.38;;;11.84;100.00
64610;BME280;51019;46.090;6.350;2023-05-09T05:33:49;96758.34;;;11.79;100.00
64610;BME280;51019;46.090;6.350;2023-05-09T05:36:18;96756.28;;;11.63;100.00
64610;BME280;51019;46.090;6.350;2023-05-09T05:38:46;96738.03;;;11.81;100.00
64610;BME280;51019;46.090;6.350;2023-05-09T05:41:14;96735.75;;;11.96;100.00
64610;BME280;51019;46.090;6.350;2023-05-09T05:43:45;96749.47;;;12.17;100.00
64610;BME280;51019;46.090;6.350;2023-05-09T05:46:13;96737.78;;;12.29;100.00
64610;BME280;51019;46.090;6.350;2023-05-09T05:48:40;96746.72;;;12.36;100.00
64610;BME280;51019;46.090;6.350;2023-05-09T05:51:08;96743.25;;;12.54;100.00
64610;BME280;51019;46.090;6.350;2023-05-09T05:53:35;96737.13;;;12.63;100.00
64610;BME280;51019;46.090;6.350;2023-05-09T05:56:03;96731.56;;;12.84;100.00
64610;BME280;51019;46.090;6.350;2023-05-09T05:58:31;96713.66;;;12.87;100.00
64610;BME280;51019;46.090;6.350;2023-05-09T06:01:01;96716.75;;;12.83;100.00
64610;BME280;51019;46.090;6.350;2023-05-09T06:03:28;96722.31;;;12.97;100.00
64610;BME280;51019;46.090;6.350;2023-05-09T06:05:59;96718.38;;;13.01;100.00
64610;BME280;51019;46.090;6.350;2023-05-09T06:08:26;96724.38;;;13.12;100.00
64610;BME280;51019;46.090;6.350;2023-05-09T06:10:56;96722.50;;;13.22;100.00
64610;BME280;51019;46.090;6.350;2023-05-09T06:13:23;96706.81;;;13.38;100.00
64610;BME280;51019;46.090;6.350;2023-05-09T06:15:54;96716.09;;;13.50;100.00
64610;BME280;51019;46.090;6.350;2023-05-09T06:18:24;96716.19;;;13.66;100.00
64610;BME280;51019;46.090;6.350;2023-05-09T06:20:52;96713.50;;;13.58;100.00
64610;BME280;51019;46.090;6.350;2023-05-09T06:23:19;96718.91;;;13.82;100.00
64610;BME280;51019;46.090;6.350;2023-05-09T06:25:47;96693.53;;;13.81;100.00
64610;BME280;51019;46.090;6.350;2023-05-09T06:28:17;96692.78;;;13.97;100.00
64610;BME280;51019;46.090;6.350;2023-05-09T06:30:44;96693.31;;;14.09;100.00
64610;BME280;51019;46.090;6.350;2023-05-09T06:33:14;96706.38;;;14.35;100.00
64610;BME280;51019;46.090;6.350;2023-05-09T06:35:43;96696.50;;;14.37;100.00
64610;BME280;51019;46.090;6.350;2023-05-09T06:38:12;96697.25;;;14.63;100.00
64610;BME280;51019;46.090;6.350;2023-05-09T06:40:41;96685.88;;;14.95;100.00
64610;BME280;51019;46.090;6.350;2023-05-09T06:43:09;96688.50;;;15.03;100.00
64610;BME280;51019;46.090;6.350;2023-05-09T06:45:36;96666.72;;;14.93;100.00
64610;BME280;51019;46.090;6.350;2023-05-09T06:48:04;96653.53;;;14.93;100.00
64610;BME280;51019;46.090;6.350;2023-05-09T06:50:31;96675.66;;;15.00;100.00
64610;BME280;51019;46.090;6.350;2023-05-09T06:53:01;96650.59;;;14.88;100.00
64610;BME280;51019;46.090;6.350;2023-05-09T06:55:29;96669.34;;;15.01;100.00
64610;BME280;51019;46.090;6.350;2023-05-09T06:57:56;96665.16;;;15.55;100.00
64610;BME280;51019;46.090;6.350;2023-05-09T07:00:24;96644.19;;;15.54;100.00
64610;BME280;51019;46.090;6.350;2023-05-09T07:02:51;96649.22;;;15.80;100.00
64610;BME280;51019;46.090;6.350;2023-05-09T07:05:23;96658.81;;;16.12;100.00
64610;BME280;51019;46.090;6.350;2023-05-09T07:07:50;96656.03;;;16.05;100.00
64610;BME280;51019;46.090;6.350;2023-05-09T07:10:21;96653.69;;;16.10;100.00
64610;BME280;51019;46.090;6.350;2023-05-09T07:12:49;96645.84;;;16.25;100.00
64610;BME280;51019;46.090;6.350;2023-05-09T07:15:18;96632.16;;;15.90;100.00
64610;BME280;51019;46.090;6.350;2023-05-09T07:17:46;96645.66;;;16.49;100.00
64610;BME280;51019;46.090;6.350;2023-05-09T07:20:13;96636.03;;;16.56;100.00
64610;BME280;51019;46.090;6.350;2023-05-09T07:22:41;96641.69;;;16.76;100.00
64610;BME280;51019;46.090;6.350;2023-05-09T07:25:09;96643.44;;;16.84;100.00
64610;BME280;51019;46.090;6.350;2023-05-09T07:27:42;96632.41;;;16.57;100.00
64610;BME280;51019;46.090;6.350;2023-05-09T07:30:10;96628.13;;;16.48;100.00
64610;BME280;51019;46.090;6.350;2023-05-09T07:32:39;96624.81;;;16.54;100.00
64610;BME280;51019;46.090;6.350;2023-05-09T07:35:10;96614.75;;;16.50;100.00
64610;BME280;51019;46.090;6.350;2023-05-09T07:37:37;96596.78;;;16.68;100.00
64610;BME280;51019;46.090;6.350;2023-05-09T07:40:06;96621.81;;;16.57;100.00
64610;BME280;51019;46.090;6.350;2023-05-09T07:42:34;96605.81;;;16.74;100.00
64610;BME280;51019;46.090;6.350;2023-05-09T07:45:09;96605.25;;;17.01;100.00
64610;BME280;51019;46.090;6.350;2023-05-09T07:47:38;96603.16;;;17.40;100.00
64610;BME280;51019;46.090;6.350;2023-05-09T07:50:07;96577.31;;;17.13;100.00
64610;BME280;51019;46.090;6.350;2023-05-09T07:52:35;96586.72;;;17.60;100.00
64610;BME280;51019;46.090;6.350;2023-05-09T07:55:04;96586.88;;;18.09;100.00
64610;BME280;51019;46.090;6.350;2023-05-09T07:57:32;96560.31;;;18.24;100.00
64610;BME280;51019;46.090;6.350;2023-05-09T08:00:00;96575.69;;;18.28;100.00
64610;BME280;51019;46.090;6.350;2023-05-09T08:02:29;96569.47;;;18.42;100.00
64610;BME280;51019;46.090;6.350;2023-05-09T08:04:57;96569.47;;;18.64;100.00
64610;BME280;51019;46.090;6.350;2023-05-09T08:07:25;96543.09;;;18.83;100.00
64610;BME280;51019;46.090;6.350;2023-05-09T08:09:53;96557.91;;;18.71;100.00
64610;BME280;51019;46.090;6.350;2023-05-09T08:12:20;96554.00;;;18.67;100.00
64610;BME280;51019;46.090;6.350;2023-05-09T08:14:51;96549.63;;;18.81;100.00
64610;BME280;51019;46.090;6.350;2023-05-09T08:17:19;96530.59;;;18.77;100.00
64610;BME280;51019;46.090;6.350;2023-05-09T08:19:51;96537.91;;;19.03;97.57
64610;BME280;51019;46.090;6.350;2023-05-09T08:22:19;96534.16;;;19.26;100.00
64610;BME280;51019;46.090;6.350;2023-05-09T08:24:47;96524.16;;;18.65;100.00
64610;BME280;51019;46.090;6.350;2023-05-09T08:27:14;96510.88;;;19.28;94.85
64610;BME280;51019;46.090;6.350;2023-05-09T08:29:42;96522.88;;;19.51;92.87
64610;BME280;51019;46.090;6.350;2023-05-09T08:32:09;96532.31;;;19.67;93.41
64610;BME280;51019;46.090;6.350;2023-05-09T08:34:38;96514.38;;;19.41;98.56
64610;BME280;51019;46.090;6.350;2023-05-09T08:37:08;96528.84;;;19.67;97.39
64610;BME280;51019;46.090;6.350;2023-05-09T08:39:35;96511.81;;;19.54;94.25
64610;BME280;51019;46.090;6.350;2023-05-09T08:42:03;96523.75;;;19.31;99.02
64610;BME280;51019;46.090;6.350;2023-05-09T08:44:30;96524.16;;;19.69;97.24
64610;BME280;51019;46.090;6.350;2023-05-09T08:47:00;96497.47;;;19.08;95.95
64610;BME280;51019;46.090;6.350;2023-05-09T08:49:28;96487.44;;;19.03;98.69
64610;BME280;51019;46.090;6.350;2023-05-09T08:51:56;96521.75;;;19.39;97.50
64610;BME280;51019;46.090;6.350;2023-05-09T08:54:26;96501.56;;;19.04;99.98
64610;BME280;51019;46.090;6.350;2023-05-09T08:56:53;96497.88;;;19.46;99.57
64610;BME280;51019;46.090;6.350;2023-05-09T08:59:23;96508.63;;;18.90;100.00
64610;BME280;51019;46.090;6.350;2023-05-09T09:01:52;96491.25;;;19.76;99.33
64610;BME280;51019;46.090;6.350;2023-05-09T09:04:21;96483.69;;;19.80;97.97
64610;BME280;51019;46.090;6.350;2023-05-09T09:06:48;96482.66;;;19.81;100.00
64610;BME280;51019;46.090;6.350;2023-05-09T09:09:18;96478.13;;;19.62;100.00
64610;BME280;51019;46.090;6.350;2023-05-09T09:11:48;96468.13;;;19.70;100.00
64610;BME280;51019;46.090;6.350;2023-05-09T09:14:22;96462.13;;;19.55;100.00
64610;BME280;51019;46.090;6.350;2023-05-09T09:16:53;96461.41;;;19.81;99.91
64610;BME280;51019;46.090;6.350;2023-05-09T09:19:26;96453.63;;;19.73;100.00
64610;BME280;51019;46.090;6.350;2023-05-09T09:21:58;96452.00;;;20.11;100.00
64610;BME280;51019;46.090;6.350;2023-05-09T09:24:25;96461.03;;;19.97;100.00
64610;BME280;51019;46.090;6.350;2023-05-09T09:26:55;96452.22;;;20.16;96.58
64610;BME280;51019;46.090;6.350;2023-05-09T09:29:22;96456.53;;;20.17;99.30
64610;BME280;51019;46.090;6.350;2023-05-09T09:31:53;96451.22;;;20.44;94.95
64610;BME280;51019;46.090;6.350;2023-05-09T09:34:22;96448.31;;;20.32;93.49
64610;BME280;51019;46.090;6.350;2023-05-09T09:36:50;96433.53;;;20.95;92.12
64610;BME280;51019;46.090;6.350;2023-05-09T09:39:17;96436.00;;;20.77;90.87
64610;BME280;51019;46.090;6.350;2023-05-09T09:41:47;96430.69;;;20.77;95.17
64610;BME280;51019;46.090;6.350;2023-05-09T09:44:17;96448.31;;;20.78;94.21
64610;BME280;51019;46.090;6.350;2023-05-09T09:46:46;96445.78;;;21.03;92.98
64610;BME280;51019;46.090;6.350;2023-05-09T09:49:16;96430.53;;;21.36;91.95
64610;BME280;51019;46.090;6.350;2023-05-09T09:51:44;96434.81;;;20.66;92.18
64610;BME280;51019;46.090;6.350;2023-05-09T09:54:14;96423.22;;;21.12;91.70
64610;BME280;51019;46.090;6.350;2023-05-09T09:56:43;96429.56;;;21.18;89.55
64610;BME280;51019;46.090;6.350;2023-05-09T09:59:12;96410.34;;;21.54;90.99
64610;BME280;51019;46.090;6.350;2023-05-09T10:01:58;96407.69;;;21.47;92.43
64610;BME280;51019;46.090;6.350;2023-05-09T10:04:29;96404.69;;;21.37;95.25
64610;BME280;51019;46.090;6.350;2023-05-09T10:06:57;96397.91;;;21.41;90.15
64610;BME280;51019;46.090;6.350;2023-05-09T10:09:26;96394.06;;;21.30;93.94
64610;BME280;51019;46.090;6.350;2023-05-09T10:11:55;96378.63;;;21.39;90.87
64610;BME280;51019;46.090;6.350;2023-05-09T10:14:24;96386.19;;;20.91;93.88
64610;BME280;51019;46.090;6.350;2023-05-09T10:16:55;96367.88;;;21.21;90.38
64610;BME280;51019;46.090;6.350;2023-05-09T10:19:26;96359.75;;;21.72;85.85
64610;BME280;51019;46.090;6.350;2023-05-09T10:21:57;96362.53;;;21.14;88.78
64610;BME280;51019;46.090;6.350;2023-05-09T10:24:27;96371.44;;;21.78;90.00
64610;BME280;51019;46.090;6.350;2023-05-09T10:27:01;96366.78;;;22.23;85.76
64610;BME280;51019;46.090;6.350;2023-05-09T10:29:33;96366.59;;;22.42;88.91
64610;BME280;51019;46.090;6.350;2023-05-09T10:32:10;96356.84;;;22.05;93.25
64610;BME280;51019;46.090;6.350;2023-05-09T10:34:41;96364.69;;;22.25;87.14
64610;BME280;51019;46.090;6.350;2023-05-09T10:37:10;96333.78;;;21.61;84.74
64610;BME280;51019;46.090;6.350;2023-05-09T10:39:39;96355.28;;;22.22;84.94
64610;BME280;51019;46.090;6.350;2023-05-09T10:42:08;96347.53;;;21.89;84.62
64610;BME280;51019;46.090;6.350;2023-05-09T10:44:36;96311.03;;;21.83;89.29
64610;BME280;51019;46.090;6.350;2023-05-09T10:47:07;96323.28;;;22.16;90.77
64610;BME280;51019;46.090;6.350;2023-05-09T10:49:34;96327.03;;;22.33;86.75
64610;BME280;51019;46.090;6.350;2023-05-09T10:52:03;96334.28;;;21.76;84.98
64610;BME280;51019;46.090;6.350;2023-05-09T10:54:31;96337.78;;;22.26;87.22
64610;BME280;51019;46.090;6.350;2023-05-09T10:56:59;96330.66;;;21.39;86.70
64610;BME280;51019;46.090;6.350;2023-05-09T10:59:32;96320.78;;;21.96;88.13
64610;BME280;51019;46.090;6.350;2023-05-09T11:02:00;96313.44;;;21.91;87.35
64610;BME280;51019;46.090;6.350;2023-05-09T11:04:31;96319.38;;;21.93;88.34
64610;BME280;51019;46.090;6.350;2023-05-09T11:06:59;96293.25;;;21.77;84.62
64610;BME280;51019;46.090;6.350;2023-05-09T11:09:29;96304.59;;;21.91;89.97
64610;BME280;51019;46.090;6.350;2023-05-09T11:12:00;96305.44;;;22.16;88.07
64610;BME280;51019;46.090;6.350;2023-05-09T11:14:29;96313.53;;;22.28;89.55
64610;BME280;51019;46.090;6.350;2023-05-09T11:16:57;96308.44;;;22.01;89.85
64610;BME280;51019;46.090;6.350;2023-05-09T11:22:43;96285.84;;;21.54;88.45
64610;BME280;51019;46.090;6.350;2023-05-09T11:25:12;96297.75;;;21.52;90.57
64610;BME280;51019;46.090;6.350;2023-05-09T11:27:42;96294.59;;;20.92;92.81
64610;BME280;51019;46.090;6.350;2023-05-09T11:30:11;96295.19;;;21.38;89.90
64610;BME280;51019;46.090;6.350;2023-05-09T11:32:42;96285.19;;;21.84;92.08
64610;BME280;51019;46.090;6.350;2023-05-09T11:35:11;96298.69;;;21.89;92.39
64610;BME280;51019;46.090;6.350;2023-05-09T11:37:46;96297.91;;;21.82;88.05
64610;BME280;51019;46.090;6.350;2023-05-09T11:40:14;96293.66;;;21.49;90.47
64610;BME280;51019;46.090;6.350;2023-05-09T11:42:44;96291.09;;;21.36;91.08
64610;BME280;51019;46.090;6.350;2023-05-09T11:45:13;96291.28;;;21.41;92.07
64610;BME280;51019;46.090;6.350;2023-05-09T11:47:41;96285.41;;;21.32;90.49
64610;BME280;51019;46.090;6.350;2023-05-09T11:50:10;96293.38;;;21.57;93.99
64610;BME280;51019;46.090;6.350;2023-05-09T11:52:39;96276.88;;;21.73;94.63
64610;BME280;51019;46.090;6.350;2023-05-09T11:55:10;96279.25;;;21.32;92.83
64610;BME280;51019;46.090;6.350;2023-05-09T11:57:39;96274.19;;;21.17;93.68
64610;BME280;51019;46.090;6.350;2023-05-09T12:00:08;96266.84;;;20.68;97.61
64610;BME280;51019;46.090;6.350;2023-05-09T12:02:35;96278.13;;;21.08;99.32
64610;BME280;51019;46.090;6.350;2023-05-09T12:05:06;96277.63;;;21.24;97.77
64610;BME280;51019;46.090;6.350;2023-05-09T12:07:34;96269.47;;;21.13;100.00
64610;BME280;51019;46.090;6.350;2023-05-09T12:10:04;96271.28;;;20.87;95.10
64610;BME280;51019;46.090;6.350;2023-05-09T12:12:35;96253.66;;;20.86;97.04
64610;BME280;51019;46.090;6.350;2023-05-09T12:15:07;96267.88;;;20.67;100.00
64610;BME280;51019;46.090;6.350;2023-05-09T12:17:35;96253.97;;;20.65;100.00
64610;BME280;51019;46.090;6.350;2023-05-09T12:20:03;96257.41;;;20.72;100.00
64610;BME280;51019;46.090;6.350;2023-05-09T12:22:32;96262.19;;;20.57;100.00
64610;BME280;51019;46.090;6.350;2023-05-09T12:25:00;96259.56;;;20.44;100.00
64610;BME280;51019;46.090;6.350;2023-05-09T12:27:29;96254.28;;;20.37;100.00
64610;BME280;51019;46.090;6.350;2023-05-09T12:30:02;96270.47;;;20.42;100.00
64610;BME280;51019;46.090;6.350;2023-05-09T12:32:33;96269.59;;;20.48;100.00
64610;BME280;51019;46.090;6.350;2023-05-09T12:35:03;96273.66;;;20.57;100.00
64610;BME280;51019;46.090;6.350;2023-05-09T12:37:32;96282.75;;;20.30;100.00
64610;BME280;51019;46.090;6.350;2023-05-09T12:40:02;96273.53;;;20.26;100.00
64610;BME280;51019;46.090;6.350;2023-05-09T12:42:29;96282.53;;;20.38;100.00
64610;BME280;51019;46.090;6.350;2023-05-09T12:44:58;96281.53;;;20.26;100.00
64610;BME280;51019;46.090;6.350;2023-05-09T12:47:28;96278.69;;;19.42;100.00
64610;BME280;51019;46.090;6.350;2023-05-09T12:49:57;96287.94;;;19.79;100.00
64610;BME280;51019;46.090;6.350;2023-05-09T12:52:32;96281.81;;;19.65;100.00
64610;BME280;51019;46.090;6.350;2023-05-09T12:55:05;96274.56;;;19.00;100.00
64610;BME280;51019;46.090;6.350;2023-05-09T12:57:33;96271.91;;;19.00;100.00
64610;BME280;51019;46.090;6.350;2023-05-09T13:00:03;96285.97;;;18.87;100.00
64610;BME280;51019;46.090;6.350;2023-05-09T13:02:35;96280.38;;;18.62;100.00
64610;BME280;51019;46.090;6.350;2023-05-09T13:05:05;96292.94;;;19.08;100.00
64610;BME280;51019;46.090;6.350;2023-05-09T13:07:38;96292.47;;;18.78;100.00